KRDR/RDR METAR and TAF weather

Enter ICAO airport designator
Station Type Date Time Source
KRDR METAR 2020/09/22 00:56 UTC NOAA

KRDR 220056Z AUTO 27005KT 10SM CLR 18/08 A2997 RMK AO2 SLP154 T01750078 $


Station Type Date Time Source
KRDR Decoded METAR 2020/09/22 00:56 UTC NOAA

Grand Forks Air Force Base, ND, United States (KRDR) 47-58N 097-24W 278M
Sep 21, 2020 - 08:56 PM EDT / 2020.09.22 0056 UTC
Wind: from the W (270 degrees) at 6 MPH (5 KT):0
Visibility: 10 mile(s):0
Sky conditions: clear
Temperature: 63.5 F (17.5 C)
Dew Point: 46.0 F (7.8 C)
Relative Humidity: 52%
Pressure (altimeter): 29.97 in. Hg (1014 hPa)
ob: KRDR 220056Z AUTO 27005KT 10SM CLR 18/08 A2997 RMK AO2 SLP154 T01750078
cycle: 1

Station Type Date Time Source
KRDR TAF 2020/09/21 18:12 UTC NOAA

TAF KRDR 211800Z 2118/2224 27025G30KT 9999 SKC 530002 QNH2991INS
BECMG 2123/2124 27006KT 9999 SKC QNH2997INS
BECMG 2217/2218 18012G18KT 9999 SKC QNH2991INS
BECMG 2223/2224 16006KT 9999 SKC QNH2990INS TX26/2217Z TN11/2211Z

Example: see airport list